Time;durP1;ratioP1;P1;durP2;ratioP2;P2;SDS_P1;SDS_P2;PMS_P1;PMS_P2;Temp;Humidity;BMP_temperature;BMP_pressure;BME280_temperature;BME280_humidity;BME280_pressure;Samples;Min_cycle;Max_cycle;Signal;HPM_P1;HPM_P2
2022/08/23 00:01:25;;;;;;;9.10;8.20;;;;;;;27.54;65.25;100602.38;5011487;28;20049;-84
2022/08/23 00:03:52;;;;;;;9.30;8.40;;;;;;;27.49;65.14;100594.41;5006457;28;20459;-83
2022/08/23 00:06:18;;;;;;;8.65;7.85;;;;;;;27.38;65.14;100575.81;5008382;28;20052;-84
2022/08/23 00:08:44;;;;;;;9.98;9.02;;;;;;;27.45;65.35;100590.00;4992912;28;20411;-85
2022/08/23 00:11:33;;;;;;;9.75;8.70;;;;;;;27.54;65.37;100608.63;5011689;28;20041;-84
2022/08/23 00:14:01;;;;;;;9.73;8.70;;;;;;;27.45;65.50;100597.19;5012373;28;20571;-83
2022/08/23 00:16:27;;;;;;;9.65;8.75;;;;;;;27.52;65.54;100610.44;5008546;28;20026;-82
2022/08/23 00:18:54;;;;;;;9.45;8.48;;;;;;;27.46;65.46;100601.63;5009110;28;20053;-83
2022/08/23 00:21:19;;;;;;;9.38;8.45;;;;;;;27.35;65.48;100581.25;4993133;28;20037;-84
2022/08/23 00:23:45;;;;;;;9.07;8.15;;;;;;;27.50;65.23;100609.59;5010282;28;20101;-83
2022/08/23 00:26:11;;;;;;;9.35;8.35;;;;;;;27.47;65.23;100617.69;5002102;28;20025;-83
2022/08/23 00:28:36;;;;;;;9.82;8.50;;;;;;;27.45;65.36;100608.78;5008961;28;20025;-83
2022/08/23 00:31:02;;;;;;;10.00;8.68;;;;;;;27.38;65.61;100589.25;5009321;28;20106;-84
2022/08/23 00:33:28;;;;;;;9.30;8.40;;;;;;;27.49;65.13;100602.44;5011861;28;20030;-85
2022/08/23 00:35:54;;;;;;;9.18;8.27;;;;;;;27.15;65.23;100543.16;5012604;28;20555;-83
2022/08/23 00:38:19;;;;;;;9.15;8.25;;;;;;;27.42;65.28;100588.28;5015721;28;20060;-85
2022/08/23 00:40:49;;;;;;;10.45;9.18;;;;;;;27.42;65.26;100598.13;5013783;28;20061;-85
2022/08/23 00:49:20;;;;;;;8.82;8.02;;;;;;;27.50;65.13;100614.09;4962638;28;20086;-84
2022/08/23 00:52:07;;;;;;;9.18;8.27;;;;;;;27.38;65.31;100588.38;5000607;28;20038;-84
2022/08/23 00:54:34;;;;;;;9.23;8.32;;;;;;;27.46;65.31;100610.56;5013289;28;20080;-84
2022/08/23 00:57:04;;;;;;;10.55;8.52;;;;;;;27.38;65.34;100585.69;5010365;28;20027;-84
2022/08/23 00:59:30;;;;;;;8.55;7.75;;;;;;;27.45;65.08;100595.38;5002122;28;20030;-83
2022/08/23 01:01:56;;;;;;;11.48;8.70;;;;;;;27.45;65.15;100592.69;4997208;28;20169;-83
2022/08/23 01:04:23;;;;;;;8.77;7.97;;;;;;;27.39;65.19;100582.09;5013551;28;20029;-83
2022/08/23 01:07:14;;;;;;;10.43;8.90;;;;;;;27.45;65.20;100598.06;4998669;28;20060;-83
2022/08/23 01:09:41;;;;;;;9.10;8.20;;;;;;;27.46;65.50;100596.28;5004847;28;20049;-83
2022/08/23 01:12:32;;;;;;;10.27;8.75;;;;;;;27.44;65.34;100590.94;5009184;28;20421;-84
2022/08/23 01:15:05;;;;;;;9.88;8.90;;;;;;;27.46;65.23;100593.59;5006149;28;20042;-83
2022/08/23 01:17:40;;;;;;;9.07;8.17;;;;;;;27.41;65.31;100588.28;4965099;28;1494627;-83
2022/08/23 01:20:10;;;;;;;9.52;8.63;;;;;;;27.42;65.16;100595.44;5011666;28;20304;-85
2022/08/23 01:22:41;;;;;;;9.30;8.40;;;;;;;27.38;65.19;100591.03;5009379;28;20034;-84
2022/08/23 01:25:09;;;;;;;9.80;8.80;;;;;;;27.44;65.28;100608.81;5019541;28;20026;-84
2022/08/23 01:27:36;;;;;;;10.25;8.50;;;;;;;27.42;64.94;100612.41;5014187;28;20121;-84
2022/08/23 01:30:06;;;;;;;10.27;8.35;;;;;;;27.41;65.26;100607.97;5012284;28;20026;-83
2022/08/23 01:32:35;;;;;;;11.50;8.52;;;;;;;27.40;65.41;100613.34;5014272;28;20030;-83
2022/08/23 01:35:00;;;;;;;9.30;8.40;;;;;;;27.40;65.43;100611.56;5011179;28;20049;-83
2022/08/23 01:37:27;;;;;;;9.68;8.60;;;;;;;27.39;65.29;100619.66;5012494;28;20488;-84
2022/08/23 01:39:54;;;;;;;9.70;8.52;;;;;;;27.32;65.23;100599.19;5011568;28;20411;-84
2022/08/23 01:42:19;;;;;;;9.73;8.20;;;;;;;27.35;64.97;100605.41;5012989;28;20030;-84
2022/08/23 01:44:45;;;;;;;10.57;9.27;;;;;;;27.40;65.34;100621.41;5014424;28;20040;-84
2022/08/23 01:47:10;;;;;;;9.50;8.55;;;;;;;27.35;65.24;100618.81;5026143;28;20018;-84
2022/08/23 01:49:36;;;;;;;9.82;8.48;;;;;;;27.19;65.10;100585.97;5007550;28;20022;-83
2022/08/23 01:52:03;;;;;;;9.95;8.70;;;;;;;27.37;65.17;100616.97;4995021;28;20026;-84
2022/08/23 01:54:28;;;;;;;9.77;8.75;;;;;;;27.33;65.44;100609.91;5014174;28;20033;-84
2022/08/23 01:56:54;;;;;;;9.63;8.73;;;;;;;27.31;64.92;100598.31;5014050;28;20018;-83
2022/08/23 01:59:19;;;;;;;9.60;8.60;;;;;;;27.38;64.87;100613.38;5013090;28;20029;-84
2022/08/23 02:01:46;;;;;;;9.40;8.50;;;;;;;27.10;65.04;100562.00;5010791;28;20120;-84
2022/08/23 02:04:11;;;;;;;9.45;8.55;;;;;;;27.31;65.13;100605.50;5013569;28;20038;-84
2022/08/23 02:06:37;;;;;;;8.73;7.93;;;;;;;27.34;65.20;100611.66;5013637;28;20409;-83
2022/08/23 02:09:05;;;;;;;9.32;8.30;;;;;;;27.35;65.06;100616.13;5010192;28;20041;-83
2022/08/23 02:11:34;;;;;;;10.93;8.60;;;;;;;27.36;64.95;100611.63;5012223;28;20096;-83
2022/08/23 02:14:04;;;;;;;9.52;8.18;;;;;;;27.32;65.30;100610.78;5013637;28;20033;-84
2022/08/23 02:16:36;;;;;;;8.85;7.95;;;;;;;27.28;65.45;100610.88;5029290;28;20623;-84
2022/08/23 02:19:07;;;;;;;8.60;7.80;;;;;;;27.32;65.30;100624.22;5011740;28;20523;-83
2022/08/23 02:21:34;;;;;;;8.85;7.97;;;;;;;27.14;65.12;100593.22;5028667;28;20056;-84
2022/08/23 02:24:05;;;;;;;9.45;8.55;;;;;;;27.36;65.27;100631.28;5013324;28;20061;-84
2022/08/23 02:26:31;;;;;;;9.15;8.25;;;;;;;27.36;64.86;100649.19;5013312;28;20472;-84
2022/08/23 02:28:56;;;;;;;8.73;7.93;;;;;;;27.25;65.21;100629.72;5010373;28;20030;-84
2022/08/23 02:31:24;;;;;;;8.80;8.00;;;;;;;27.29;64.87;100631.44;5028416;28;20026;-85
2022/08/23 02:33:50;;;;;;;10.05;8.57;;;;;;;27.25;65.08;100638.63;4996109;28;20450;-85
2022/08/23 02:36:17;;;;;;;9.95;8.88;;;;;;;27.25;65.21;100640.44;5016971;28;20029;-86
2022/08/23 02:38:43;;;;;;;10.07;8.77;;;;;;;27.08;65.04;100625.47;5021132;28;20022;-86
2022/08/23 02:41:09;;;;;;;8.95;8.05;;;;;;;27.16;65.36;100641.47;5019279;28;20024;-85
2022/08/23 02:43:36;;;;;;;9.57;8.50;;;;;;;27.28;65.26;100659.16;5013297;28;20038;-85
2022/08/23 02:46:05;;;;;;;9.75;8.75;;;;;;;27.24;65.20;100657.44;5011322;28;20056;-85
2022/08/23 02:48:34;;;;;;;9.73;8.73;;;;;;;27.26;64.95;100656.47;5011100;28;20100;-84
2022/08/23 02:51:02;;;;;;;9.45;8.55;;;;;;;27.20;65.20;100648.53;5012360;28;20104;-85
2022/08/23 02:53:29;;;;;;;9.50;8.50;;;;;;;27.29;65.25;100659.13;5011384;28;20022;-84
2022/08/23 02:55:55;;;;;;;8.93;8.02;;;;;;;27.28;65.45;100656.47;5027638;28;20125;-83
2022/08/23 02:58:21;;;;;;;10.60;8.55;;;;;;;27.16;65.21;100647.69;5010495;28;20118;-85
2022/08/23 03:00:47;;;;;;;9.90;8.20;;;;;;;27.16;65.46;100645.00;5026911;28;20096;-84
2022/08/23 03:03:13;;;;;;;10.70;8.43;;;;;;;27.27;65.09;100662.75;5012396;28;20026;-84
2022/08/23 03:05:38;;;;;;;9.13;8.13;;;;;;;27.24;65.12;100663.66;5010303;28;20030;-85
2022/08/23 03:08:04;;;;;;;8.75;7.95;;;;;;;27.15;65.05;100653.94;5027632;28;20492;-83
2022/08/23 03:10:30;;;;;;;9.45;8.43;;;;;;;27.24;65.23;100670.84;5011701;28;20022;-85
2022/08/23 03:12:56;;;;;;;9.77;8.75;;;;;;;27.14;65.16;100657.56;5012738;28;20034;-84
2022/08/23 03:15:21;;;;;;;;;;;;;;;27.31;65.04;100680.56;5011851;28;20038;-86
2022/08/23 03:17:47;;;;;;;9.73;8.73;;;;;;;27.24;65.02;100678.88;5014650;28;19924;-85
2022/08/23 03:20:13;;;;;;;9.18;8.25;;;;;;;27.16;65.25;100666.47;5011669;28;20121;-85
2022/08/23 03:22:39;;;;;;;9.00;8.10;;;;;;;27.01;65.27;100646.16;5007786;28;20076;-84
2022/08/23 03:25:06;;;;;;;8.82;7.97;;;;;;;27.08;65.47;100662.13;5006139;28;20046;-83
2022/08/23 03:27:32;;;;;;;10.25;8.20;;;;;;;27.18;65.33;100685.22;5011975;28;20033;-84
2022/08/23 03:29:58;;;;;;;9.02;8.13;;;;;;;27.03;64.95;100651.50;5019289;28;20061;-85
2022/08/23 03:32:23;;;;;;;12.07;8.90;;;;;;;27.10;65.21;100671.91;5016715;28;20057;-85
2022/08/23 03:34:49;;;;;;;8.88;7.90;;;;;;;27.12;65.18;100674.59;5011753;28;20499;-85
2022/08/23 03:37:15;;;;;;;9.00;8.20;;;;;;;27.21;65.02;100696.75;5012195;28;20518;-83
2022/08/23 03:39:40;;;;;;;8.88;7.85;;;;;;;27.04;65.32;100663.97;5012400;28;20033;-84
2022/08/23 03:42:06;;;;;;;9.68;8.68;;;;;;;27.19;65.26;100693.19;5025274;28;20111;-82
2022/08/23 03:44:32;;;;;;;13.07;8.93;;;;;;;27.15;65.37;100685.25;5010181;28;20038;-85
2022/08/23 03:46:58;;;;;;;8.38;7.57;;;;;;;27.04;65.46;100653.25;5014640;28;20113;-83
2022/08/23 03:49:23;;;;;;;9.57;8.13;;;;;;;27.19;65.31;100689.66;5015670;28;20132;-85
2022/08/23 03:51:49;;;;;;;9.15;8.23;;;;;;;27.06;65.51;100667.50;5020231;28;20030;-85
2022/08/23 03:54:15;;;;;;;9.52;8.52;;;;;;;27.17;65.47;100686.97;5011422;28;20100;-84
2022/08/23 03:56:59;;;;;;;8.30;7.50;;;;;;;27.20;65.05;100700.34;5020085;28;20029;-84
2022/08/23 03:59:25;;;;;;;8.23;7.43;;;;;;;27.20;65.22;100697.69;5004116;28;20030;-84
2022/08/23 04:01:51;;;;;;;9.25;8.30;;;;;;;27.16;65.09;100703.13;5008690;28;20105;-84
2022/08/23 04:04:17;;;;;;;10.10;8.55;;;;;;;27.17;65.25;100691.47;5008549;28;20117;-84
2022/08/23 04:06:44;;;;;;;9.88;8.18;;;;;;;27.13;65.36;100698.66;5009963;28;20495;-84
2022/08/23 04:09:13;;;;;;;10.70;8.45;;;;;;;27.17;65.14;100711.09;5009902;28;20025;-84
2022/08/23 04:11:38;;;;;;;9.32;8.32;;;;;;;27.19;65.01;100709.28;5010142;28;20026;-84
2022/08/23 04:14:05;;;;;;;10.57;8.15;;;;;;;27.15;65.22;100706.69;5009659;28;20053;-84
2022/08/23 04:16:36;;;;;;;8.77;7.95;;;;;;;27.13;65.13;100709.38;5012935;28;20057;-83
2022/08/23 04:19:05;;;;;;;9.27;8.38;;;;;;;27.11;65.18;100702.28;5009616;28;20107;-84
2022/08/23 04:21:31;;;;;;;9.50;8.50;;;;;;;27.08;65.15;100710.38;5007917;28;20031;-84
2022/08/23 04:23:56;;;;;;;10.50;8.15;;;;;;;27.06;65.08;100705.03;5008342;28;20054;-84
2022/08/23 04:26:22;;;;;;;10.75;8.55;;;;;;;27.05;65.31;100702.38;5011186;28;20404;-84
2022/08/23 04:28:48;;;;;;;9.20;8.30;;;;;;;27.11;65.30;100708.53;5010742;28;20404;-83
2022/08/23 04:31:15;;;;;;;9.43;8.23;;;;;;;27.13;65.30;100721.91;5011863;28;20030;-84
2022/08/23 04:33:40;;;;;;;10.18;8.63;;;;;;;27.13;65.13;100717.44;5007436;28;20105;-84
2022/08/23 04:36:06;;;;;;;9.75;8.75;;;;;;;27.12;65.19;100731.75;5011130;28;20116;-84
2022/08/23 04:38:32;;;;;;;;;;;;;;;27.16;65.30;100727.25;5010131;28;20087;-85
2022/08/23 04:43:43;;;;;;;8.05;7.22;;;;;;;27.12;64.99;100731.75;5009475;28;20061;-84
2022/08/23 04:46:09;;;;;;;8.80;7.90;;;;;;;27.04;65.07;100714.91;5009426;28;20033;-84
2022/08/23 04:48:35;;;;;;;8.85;8.05;;;;;;;26.94;65.19;100703.41;5009586;28;20052;-87
2022/08/23 04:51:01;;;;;;;8.95;8.05;;;;;;;27.14;65.50;100735.28;5015267;28;20083;-83
2022/08/23 04:53:34;;;;;;;8.65;7.63;;;;;;;26.92;65.13;100699.88;5010775;28;20029;-81
2022/08/23 04:56:01;;;;;;;8.60;7.70;;;;;;;27.12;65.46;100729.06;4994149;28;20416;-82
2022/08/23 04:58:27;;;;;;;9.23;8.32;;;;;;;27.06;65.00;100718.44;5012691;28;20022;-83
2022/08/23 05:00:54;;;;;;;9.48;8.10;;;;;;;27.04;65.42;100719.38;5012713;28;20030;-82
2022/08/23 05:03:21;;;;;;;9.18;8.02;;;;;;;27.16;65.19;100740.66;4999825;28;20069;-84
2022/08/23 05:05:47;;;;;;;10.48;8.30;;;;;;;26.96;65.08;100706.94;5013601;28;20565;-85
2022/08/23 05:08:12;;;;;;;10.18;8.18;;;;;;;26.91;65.17;100708.81;5004428;28;20038;-85
2022/08/23 05:10:39;;;;;;;9.10;8.20;;;;;;;26.92;65.31;100701.66;5013867;28;20408;-88
2022/08/23 05:13:05;;;;;;;10.23;7.90;;;;;;;27.10;65.49;100733.56;5009673;28;20023;-86
2022/08/23 05:15:31;;;;;;;11.43;8.70;;;;;;;26.90;65.11;100699.03;5011225;28;20040;-87
2022/08/23 05:17:56;;;;;;;9.93;7.90;;;;;;;26.77;65.05;100678.66;5013358;28;20482;-86
2022/08/23 05:20:22;;;;;;;10.20;8.27;;;;;;;27.10;65.55;100733.56;5010768;28;20113;-85
2022/08/23 05:22:49;;;;;;;9.15;8.25;;;;;;;27.15;65.63;100744.22;5012994;28;20018;-87
2022/08/23 05:25:15;;;;;;;9.27;8.32;;;;;;;26.96;65.33;100720.34;5014082;28;20084;-85
2022/08/23 05:27:40;;;;;;;9.95;8.43;;;;;;;27.13;65.37;100738.88;5011855;28;20025;-84
2022/08/23 05:30:07;;;;;;;8.80;7.65;;;;;;;27.13;65.36;100743.34;5014945;28;20030;-84
2022/08/23 05:32:33;;;;;;;9.95;8.27;;;;;;;27.12;65.27;100739.78;5013535;28;20040;-85
2022/08/23 05:34:58;;;;;;;8.90;7.93;;;;;;;27.06;65.67;100737.19;5013691;28;20022;-84
2022/08/23 05:37:24;;;;;;;8.45;7.57;;;;;;;27.11;65.41;100739.81;5011980;28;20034;-84
2022/08/23 05:39:49;;;;;;;8.52;7.72;;;;;;;26.97;65.28;100719.47;5013347;28;20491;-85
2022/08/23 05:42:15;;;;;;;;;;;;;;;27.16;65.35;100756.72;5010134;28;20023;-85
2022/08/23 05:44:42;;;;;;;9.38;8.38;;;;;;;26.88;65.40;100706.22;5009737;28;20007;-85
2022/08/23 05:47:09;;;;;;;9.95;8.50;;;;;;;27.04;66.00;100741.69;5025736;28;20037;-85
2022/08/23 05:49:35;;;;;;;12.68;8.32;;;;;;;27.02;65.68;100741.72;5011890;28;20156;-85
2022/08/23 05:52:04;;;;;;;9.45;8.10;;;;;;;27.10;65.68;100754.13;5012605;28;20515;-87
2022/08/23 05:54:30;;;;;;;11.23;8.27;;;;;;;27.08;65.87;100759.50;5009557;28;20034;-84
2022/08/23 05:56:56;;;;;;;10.00;8.05;;;;;;;27.01;66.12;100733.72;5009034;28;20026;-84
2022/08/23 05:59:21;;;;;;;11.32;8.65;;;;;;;27.03;66.38;100731.91;5009830;28;20048;-86
2022/08/23 06:01:47;;;;;;;10.13;7.65;;;;;;;27.11;65.97;100754.09;5008455;28;20048;-85
2022/08/23 06:04:13;;;;;;;9.73;7.95;;;;;;;26.86;66.10;100713.38;5007822;28;20044;-86
2022/08/23 06:06:41;;;;;;;11.77;8.30;;;;;;;26.99;66.07;100738.22;5012375;28;20048;-86
2022/08/23 06:09:10;;;;;;;11.68;8.90;;;;;;;26.95;66.20;100721.28;5036579;28;20029;-87
2022/08/23 06:11:36;;;;;;;11.82;8.13;;;;;;;27.07;66.14;100751.47;5032584;28;20022;-84
2022/08/23 06:14:04;;;;;;;12.23;8.60;;;;;;;27.07;66.15;100757.72;5011296;28;20034;-85
2022/08/23 06:16:33;;;;;;;11.05;8.65;;;;;;;26.88;66.85;100724.97;5011850;28;20068;-85
2022/08/23 06:19:01;;;;;;;10.05;9.00;;;;;;;27.05;66.63;100750.63;5009725;28;20337;-85
2022/08/23 06:21:28;;;;;;;10.75;8.40;;;;;;;27.08;66.41;100762.19;5011380;28;20510;-85
2022/08/23 06:23:54;;;;;;;9.23;8.18;;;;;;;27.02;66.37;100760.47;5009232;28;20084;-84
2022/08/23 06:26:32;;;;;;;9.57;8.35;;;;;;;27.05;66.37;100766.69;5008294;28;20018;-85
2022/08/23 06:29:04;;;;;;;9.88;7.90;;;;;;;26.81;66.14;100731.28;5010513;28;20499;-89
2022/08/23 06:31:48;;;;;;;8.82;7.90;;;;;;;26.81;65.77;100724.13;4994815;28;20029;-88
2022/08/23 06:34:22;;;;;;;9.40;7.95;;;;;;;26.89;65.79;100737.44;4999525;28;20022;-86
2022/08/23 06:36:56;;;;;;;8.60;7.70;;;;;;;27.07;66.14;100762.19;5007399;28;20034;-86
2022/08/23 06:39:26;;;;;;;9.35;7.50;;;;;;;27.06;66.01;100761.31;5011474;28;20060;-87
2022/08/23 06:41:53;;;;;;;8.98;7.75;;;;;;;27.08;66.13;100769.34;5013655;28;20029;-85
2022/08/23 06:44:19;;;;;;;10.48;7.70;;;;;;;27.06;66.09;100776.53;5003996;28;20034;-85
2022/08/23 06:46:46;;;;;;;8.35;7.53;;;;;;;27.02;65.92;100765.84;5012672;28;20466;-85
2022/08/23 06:49:12;;;;;;;10.50;8.30;;;;;;;26.96;66.08;100765.91;5008800;28;20034;-85
2022/08/23 06:51:44;;;;;;;8.60;7.70;;;;;;;27.05;66.18;100775.66;5009705;28;20377;-83
2022/08/23 06:54:12;;;;;;;10.57;8.05;;;;;;;27.06;65.54;100785.44;5010115;28;20030;-83
2022/08/23 06:56:40;;;;;;;8.70;7.80;;;;;;;27.06;65.50;100785.44;5025305;28;20049;-85
2022/08/23 06:59:06;;;;;;;9.35;8.20;;;;;;;27.03;65.85;100782.81;5003439;28;20026;-84
2022/08/23 07:01:36;;;;;;;9.25;7.90;;;;;;;27.04;66.10;100789.06;5016165;28;20041;-84
2022/08/23 07:04:04;;;;;;;9.57;8.02;;;;;;;27.05;65.83;100796.19;5013158;28;20484;-85
2022/08/23 07:06:30;;;;;;;10.35;7.65;;;;;;;27.06;65.63;100800.66;5011520;28;20488;-84
2022/08/23 07:08:57;;;;;;;8.15;7.35;;;;;;;27.01;65.71;100796.25;5009776;28;20031;-84
2022/08/23 07:11:24;;;;;;;9.20;7.97;;;;;;;27.04;66.17;100806.03;5013041;28;20034;-84
2022/08/23 07:13:51;;;;;;;8.48;7.53;;;;;;;27.04;65.78;100789.94;5012253;28;20080;-83
2022/08/23 07:16:18;;;;;;;8.27;7.38;;;;;;;27.01;65.76;100798.03;5012893;28;20033;-84
2022/08/23 07:18:45;;;;;;;9.20;7.47;;;;;;;27.03;65.99;100796.22;5011656;28;20042;-84
2022/08/23 07:21:12;;;;;;;9.23;7.50;;;;;;;27.02;65.59;100781.91;5012885;28;20022;-84
2022/08/23 07:23:38;;;;;;;12.25;7.95;;;;;;;27.04;66.49;100789.06;5027245;28;20053;-84
2022/08/23 07:26:11;;;;;;;9.43;7.32;;;;;;;27.02;65.81;100784.59;5012276;28;20515;-85
2022/08/23 07:28:37;;;;;;;8.27;7.07;;;;;;;26.96;66.03;100773.94;5012438;28;20080;-84
2022/08/23 07:31:13;;;;;;;10.07;7.38;;;;;;;26.87;66.07;100741.94;5012819;28;20017;-86
2022/08/23 07:33:39;;;;;;;8.65;7.20;;;;;;;26.93;66.01;100757.94;5011115;28;20089;-85
2022/08/23 07:36:06;;;;;;;10.77;7.38;;;;;;;27.01;65.75;100753.34;4991197;28;20073;-85
2022/08/23 07:38:31;;;;;;;8.98;7.10;;;;;;;27.00;66.04;100767.66;5004767;28;20022;-86
2022/08/23 07:40:57;;;;;;;9.45;7.15;;;;;;;27.01;65.98;100781.97;5014345;28;20026;-85
2022/08/23 07:43:23;;;;;;;8.45;7.53;;;;;;;27.01;66.24;100798.91;5013422;28;20503;-85
2022/08/23 07:45:49;;;;;;;10.00;7.63;;;;;;;27.04;66.49;100789.06;5010877;28;20049;-84
2022/08/23 07:48:15;;;;;;;10.35;7.75;;;;;;;27.01;66.86;100772.13;5011979;28;20089;-85
2022/08/23 07:50:41;;;;;;;11.48;7.13;;;;;;;27.04;66.47;100773.84;5011623;28;20029;-84
2022/08/23 07:53:07;;;;;;;10.07;7.30;;;;;;;27.04;66.34;100781.03;5009571;28;20404;-85
2022/08/23 07:55:33;;;;;;;10.65;7.95;;;;;;;27.07;66.61;100778.28;5012562;28;20048;-85
2022/08/23 07:57:59;;;;;;;10.13;7.63;;;;;;;27.07;66.39;100778.28;5010043;28;20030;-83
2022/08/23 08:00:25;;;;;;;8.95;7.40;;;;;;;27.15;66.06;100789.78;5009930;28;20432;-84
2022/08/23 08:02:51;;;;;;;10.38;7.68;;;;;;;26.98;65.74;100777.50;5004825;28;20064;-85
2022/08/23 08:05:20;;;;;;;9.38;6.88;;;;;;;26.98;65.91;100781.97;5011413;28;20108;-84
2022/08/23 08:07:45;;;;;;;9.35;7.68;;;;;;;27.14;65.87;100793.41;5011923;28;20026;-85
2022/08/23 08:10:12;;;;;;;8.77;7.07;;;;;;;27.13;66.21;100803.22;5007707;28;20634;-84
2022/08/23 08:12:38;;;;;;;9.00;7.57;;;;;;;27.01;65.63;100776.59;5016606;28;20056;-85
2022/08/23 08:15:04;;;;;;;10.40;7.75;;;;;;;27.21;65.49;100795.06;5016234;28;20018;-83
2022/08/23 08:17:30;;;;;;;10.52;7.70;;;;;;;27.14;65.83;100793.41;5011200;28;20026;-85
2022/08/23 08:19:56;;;;;;;10.32;7.78;;;;;;;27.17;65.77;100794.22;5011421;28;20033;-86
2022/08/23 08:22:21;;;;;;;9.35;7.22;;;;;;;27.21;65.81;100798.63;5011186;28;20610;-85
2022/08/23 08:24:47;;;;;;;9.23;7.35;;;;;;;26.98;65.83;100766.78;5011486;28;20033;-84
2022/08/23 08:27:12;;;;;;;10.93;7.35;;;;;;;27.14;65.56;100788.03;5010900;28;20037;-84
2022/08/23 08:29:38;;;;;;;8.80;7.13;;;;;;;27.17;65.46;100798.69;5012604;28;20030;-84
2022/08/23 08:32:04;;;;;;;9.25;7.63;;;;;;;27.02;65.61;100773.88;5009652;28;20041;-83
2022/08/23 08:34:30;;;;;;;8.98;7.72;;;;;;;27.14;65.71;100801.44;5022837;28;20404;-84
2022/08/23 08:36:57;;;;;;;10.15;7.70;;;;;;;27.10;66.02;100783.63;4993157;28;20160;-84
2022/08/23 08:39:25;;;;;;;9.88;7.65;;;;;;;27.27;65.15;100804.88;5006197;28;20084;-84
2022/08/23 08:42:03;;;;;;;8.48;7.50;;;;;;;27.19;65.81;100805.81;5002283;28;20041;-85
2022/08/23 08:44:56;;;;;;;10.00;7.55;;;;;;;27.20;65.27;100807.59;5009821;28;20163;-84
2022/08/23 08:47:48;;;;;;;11.45;7.82;;;;;;;27.20;65.58;100799.56;5006727;28;20488;-83
2022/08/23 08:50:28;;;;;;;10.55;6.93;;;;;;;27.13;65.65;100788.94;5004486;28;20033;-83
2022/08/23 08:52:59;;;;;;;8.15;7.20;;;;;;;27.19;65.75;100799.56;5008366;28;20256;-83
2022/08/23 08:55:29;;;;;;;9.20;7.50;;;;;;;27.07;65.81;100772.94;5017820;28;20025;-83
2022/08/23 08:57:55;;;;;;;9.73;7.72;;;;;;;27.22;65.39;100791.53;4999296;28;20034;-83
2022/08/23 09:00:24;;;;;;;9.80;7.25;;;;;;;27.28;65.25;100802.13;5013350;28;20026;-83
2022/08/23 09:02:50;;;;;;;10.43;7.47;;;;;;;27.20;65.55;100804.91;5002980;28;20026;-83
2022/08/23 09:05:38;;;;;;;7.85;6.57;;;;;;;27.23;65.71;100808.50;5012554;28;20030;-84
2022/08/23 09:08:24;;;;;;;8.23;7.03;;;;;;;27.23;65.79;100808.50;5014254;28;20037;-84
2022/08/23 09:11:01;;;;;;;10.02;6.97;;;;;;;27.20;65.88;100810.28;5004808;28;20049;-83
2022/08/23 09:14:07;;;;;;;9.52;7.20;;;;;;;27.15;65.87;100798.72;5012993;28;20026;-84
2022/08/23 09:16:57;;;;;;;9.30;7.00;;;;;;;27.23;65.94;100800.44;5014359;28;20087;-84
2022/08/23 09:19:23;;;;;;;11.07;7.65;;;;;;;27.19;65.82;100795.09;5009129;28;20120;-83
2022/08/23 09:22:00;;;;;;;7.75;6.93;;;;;;;27.24;65.87;100804.88;5014069;28;20030;-84
2022/08/23 09:24:26;;;;;;;10.40;7.47;;;;;;;27.26;65.99;100800.41;5012081;28;20018;-82
2022/08/23 09:26:52;;;;;;;9.60;7.50;;;;;;;27.14;65.98;100780.00;5010151;28;20034;-84
2022/08/23 09:29:25;;;;;;;10.57;7.32;;;;;;;27.29;66.00;100806.59;5009161;28;20037;-84
2022/08/23 09:31:57;;;;;;;9.40;7.30;;;;;;;27.30;65.96;100810.16;5012741;28;20026;-85
2022/08/23 09:34:43;;;;;;;9.35;7.30;;;;;;;27.29;65.55;100822.69;5010795;28;20065;-85
2022/08/23 09:37:22;;;;;;;11.48;7.13;;;;;;;27.25;66.11;100815.59;5013281;28;20168;-84
2022/08/23 09:39:50;;;;;;;9.70;7.28;;;;;;;26.77;66.28;100745.63;5010330;28;20080;-83
2022/08/23 09:42:31;;;;;;;10.63;7.53;;;;;;;27.05;66.37;100777.41;5018373;28;20026;-83
2022/08/23 09:44:58;;;;;;;10.95;7.68;;;;;;;27.32;65.76;100811.91;5012082;28;20030;-85
2022/08/23 09:47:35;;;;;;;11.23;6.75;;;;;;;27.10;65.92;100770.22;5011135;28;20104;-83
2022/08/23 09:50:29;;;;;;;11.40;6.97;;;;;;;27.30;66.39;100807.50;5012540;28;20060;-84
2022/08/23 09:53:11;;;;;;;11.45;7.97;;;;;;;26.98;66.25;100773.94;4996523;28;20161;-85
2022/08/23 09:55:46;;;;;;;9.85;7.30;;;;;;;26.87;66.21;100730.34;5011044;28;20037;-84
2022/08/23 09:58:36;;;;;;;11.73;7.20;;;;;;;27.21;66.11;100803.13;4994145;28;20133;-84
2022/08/23 10:01:13;;;;;;;12.32;7.72;;;;;;;27.32;65.82;100824.44;5011677;28;20021;-85
2022/08/23 10:03:41;;;;;;;11.77;7.15;;;;;;;27.17;65.94;100782.63;5010486;28;20244;-85
2022/08/23 10:06:08;;;;;;;10.27;7.18;;;;;;;27.19;66.60;100786.16;5014862;28;20088;-85
2022/08/23 10:08:50;;;;;;;17.70;7.40;;;;;;;27.32;66.84;100797.63;5025873;28;20027;-84
2022/08/23 10:11:18;;;;;;;24.75;9.32;;;;;;;27.32;68.59;100793.16;5012522;28;20509;-86
2022/08/23 10:13:44;;;;;;;12.30;7.85;;;;;;;27.24;68.38;100792.38;5017519;28;20060;-86
2022/08/23 10:16:24;;;;;;;18.13;8.27;;;;;;;27.19;67.74;100783.47;5024107;28;20034;-86
2022/08/23 10:18:56;;;;;;;17.52;8.27;;;;;;;27.30;67.29;100791.41;5017567;28;20446;-86
2022/08/23 10:21:46;;;;;;;16.73;8.27;;;;;;;27.17;67.84;100767.41;5016797;28;20562;-87
2022/08/23 10:24:14;;;;;;;11.02;7.43;;;;;;;27.35;67.14;100801.16;5018475;28;20057;-87
2022/08/23 10:26:50;;;;;;;15.65;7.80;;;;;;;27.29;67.33;100792.31;5014097;28;20058;-85
2022/08/23 10:29:37;;;;;;;15.18;7.75;;;;;;;27.29;67.79;100811.09;5012470;28;20033;-84
2022/08/23 10:32:14;;;;;;;14.93;7.75;;;;;;;27.36;67.77;100815.44;5009589;28;20056;-83
2022/08/23 10:35:06;;;;;;;14.13;7.40;;;;;;;27.41;67.14;100821.63;5009393;28;20105;-85
2022/08/23 10:37:55;;;;;;;14.05;7.32;;;;;;;27.37;66.72;100827.97;5010913;28;20052;-86
2022/08/23 10:40:42;;;;;;;11.38;7.40;;;;;;;27.27;66.97;100813.78;5013316;28;20042;-85
2022/08/23 10:43:36;;;;;;;15.15;7.45;;;;;;;27.08;67.22;100770.22;5006642;28;20022;-84
2022/08/23 10:46:02;;;;;;;13.38;7.57;;;;;;;27.40;67.37;100817.19;5006649;28;20046;-84
2022/08/23 10:48:35;;;;;;;17.35;7.40;;;;;;;27.31;66.98;100790.50;5021614;28;20037;-84
2022/08/23 10:51:11;;;;;;;14.48;8.50;;;;;;;27.41;66.85;100808.19;4991701;28;20084;-85
2022/08/23 10:53:55;;;;;;;12.70;8.05;;;;;;;27.36;66.82;100802.91;5013398;28;20124;-84
2022/08/23 10:56:22;;;;;;;10.18;7.45;;;;;;;27.25;67.25;100795.97;5027246;28;20172;-85
2022/08/23 10:59:13;;;;;;;10.48;7.47;;;;;;;27.49;66.88;100817.03;5018901;28;20054;-84
2022/08/23 11:02:02;;;;;;;13.07;7.60;;;;;;;27.47;67.22;100820.66;4993150;28;20026;-86
2022/08/23 11:04:36;;;;;;;14.95;7.95;;;;;;;27.08;67.31;100753.28;5009472;28;20160;-86
2022/08/23 11:07:26;;;;;;;11.32;7.32;;;;;;;27.19;66.86;100762.91;5000003;28;20101;-87
2022/08/23 11:09:51;;;;;;;11.48;8.13;;;;;;;27.45;66.77;100809.94;4996037;28;20034;-83
2022/08/23 11:12:28;;;;;;;12.55;7.65;;;;;;;27.44;67.23;100816.22;5009672;28;20080;-86
2022/08/23 11:15:06;;;;;;;12.07;7.18;;;;;;;27.51;67.14;100822.38;5011040;28;20564;-86
2022/08/23 11:18:06;;;;;;;10.65;7.25;;;;;;;27.52;67.47;100818.81;5011526;28;20520;-86
2022/08/23 11:20:51;;;;;;;15.98;7.93;;;;;;;27.47;67.07;100810.78;4967290;28;20479;-86
2022/08/23 11:23:37;;;;;;;10.07;6.63;;;;;;;27.21;67.17;100761.09;5013631;28;20064;-88
2022/08/23 11:26:05;;;;;;;13.52;7.45;;;;;;;27.10;66.94;100749.66;5021075;28;20078;-87
2022/08/23 11:28:54;;;;;;;14.60;7.32;;;;;;;27.16;66.91;100748.69;4992739;28;20030;-88
2022/08/23 11:31:26;;;;;;;12.07;7.05;;;;;;;27.57;66.71;100816.91;5010873;28;20022;-86
2022/08/23 11:34:05;;;;;;;9.63;7.22;;;;;;;27.63;66.57;100818.63;5001211;28;20037;-88
2022/08/23 11:36:33;;;;;;;12.63;7.53;;;;;;;27.61;66.56;100813.28;5010706;28;20026;-88
2022/08/23 11:39:11;;;;;;;11.70;7.65;;;;;;;27.57;66.83;100803.50;4982380;28;20061;-88
2022/08/23 11:41:55;;;;;;;12.05;7.25;;;;;;;27.61;66.95;100810.59;4981007;28;20030;-86
2022/08/23 11:44:37;;;;;;;12.10;7.13;;;;;;;27.67;66.47;100815.00;5011567;28;20480;-86